createdAt,value
2019-03-03T00:00:43.733Z,1006.76
2019-03-03T00:01:43.744Z,1006.78
2019-03-03T00:02:43.711Z,1006.76
2019-03-03T00:03:43.699Z,1006.79
2019-03-03T00:04:43.700Z,1006.83
2019-03-03T00:05:43.676Z,1006.73
2019-03-03T00:06:43.724Z,1006.76
2019-03-03T00:07:43.654Z,1006.76
2019-03-03T00:08:43.646Z,1006.74
2019-03-03T00:09:43.632Z,1006.76
2019-03-03T00:10:43.627Z,1006.78
2019-03-03T00:11:43.640Z,1006.73
2019-03-03T00:12:43.609Z,1006.79
2019-03-03T00:13:43.587Z,1006.82
2019-03-03T00:14:43.582Z,1006.76
2019-03-03T00:15:43.565Z,1006.80
2019-03-03T00:16:43.583Z,1006.83
2019-03-03T00:17:43.549Z,1006.83
2019-03-03T00:18:43.596Z,1006.83
2019-03-03T00:19:43.526Z,1006.86
2019-03-03T00:20:43.518Z,1006.85
2019-03-03T00:21:43.522Z,1006.84
2019-03-03T00:22:43.520Z,1006.81
2019-03-03T00:23:43.486Z,1006.80
2019-03-03T00:24:43.477Z,1006.83
2019-03-03T00:25:43.463Z,1006.80
2019-03-03T00:26:43.451Z,1006.84
2019-03-03T00:27:50.481Z,1006.78
2019-03-03T00:28:43.428Z,1006.82
2019-03-03T00:29:43.412Z,1006.82
2019-03-03T00:30:43.402Z,1006.81
2019-03-03T00:31:43.393Z,1006.77
2019-03-03T00:32:43.406Z,1006.81
2019-03-03T00:33:43.373Z,1006.77
2019-03-03T00:34:43.365Z,1006.75
2019-03-03T00:35:43.446Z,1006.76
2019-03-03T00:36:43.364Z,1006.76
2019-03-03T00:37:43.326Z,1006.77
2019-03-03T00:38:43.349Z,1006.74
2019-03-03T00:39:43.307Z,1006.75
2019-03-03T00:40:43.295Z,1006.72
2019-03-03T00:41:43.285Z,1006.69
2019-03-03T00:42:43.273Z,1006.67
2019-03-03T00:43:43.269Z,1006.69
2019-03-03T00:44:43.272Z,1006.67
2019-03-03T00:45:43.244Z,1006.64
2019-03-03T00:46:43.232Z,1006.62
2019-03-03T00:47:43.219Z,1006.62
2019-03-03T00:48:43.229Z,1006.55
2019-03-03T00:49:43.201Z,1006.55
2019-03-03T00:50:43.214Z,1006.53
2019-03-03T00:51:43.228Z,1006.54
2019-03-03T00:52:43.165Z,1006.51
2019-03-03T00:53:43.154Z,1006.51
2019-03-03T00:54:43.147Z,1006.49
2019-03-03T00:55:43.151Z,1006.48
2019-03-03T00:56:43.122Z,1006.54
2019-03-03T00:57:43.136Z,1006.50
2019-03-03T00:58:43.098Z,1006.53
2019-03-03T00:59:43.087Z,1006.56
2019-03-03T01:00:43.103Z,1006.53
2019-03-03T01:01:43.069Z,1006.56
2019-03-03T01:02:43.064Z,1006.58
2019-03-03T01:03:43.076Z,1006.63
2019-03-03T01:04:43.033Z,1006.66
2019-03-03T01:05:43.022Z,1006.62
2019-03-03T01:06:43.041Z,1006.62
2019-03-03T01:07:43.002Z,1006.66
2019-03-03T01:08:42.997Z,1006.61
2019-03-03T01:09:43.009Z,1006.62
2019-03-03T01:10:42.971Z,1006.57
2019-03-03T01:11:42.982Z,1006.53
2019-03-03T01:12:42.956Z,1006.50
2019-03-03T01:13:42.934Z,1006.48
2019-03-03T01:14:42.939Z,1006.45
2019-03-03T01:15:42.914Z,1006.46
2019-03-03T01:16:42.927Z,1006.43
2019-03-03T01:17:42.894Z,1006.47
2019-03-03T01:18:42.884Z,1006.44
2019-03-03T01:19:42.887Z,1006.41
2019-03-03T01:20:42.868Z,1006.36
2019-03-03T01:21:42.872Z,1006.34
2019-03-03T01:22:42.842Z,1006.38
2019-03-03T01:23:42.833Z,1006.34
2019-03-03T01:24:42.816Z,1006.34
2019-03-03T01:25:42.809Z,1006.32
2019-03-03T01:26:42.840Z,1006.35
2019-03-03T01:27:42.782Z,1006.32
2019-03-03T01:28:42.778Z,1006.36
2019-03-03T01:29:42.766Z,1006.35
2019-03-03T01:30:42.757Z,1006.37
2019-03-03T01:31:42.753Z,1006.38
2019-03-03T01:32:42.748Z,1006.37
2019-03-03T01:33:42.723Z,1006.41
2019-03-03T01:34:42.714Z,1006.41
2019-03-03T01:35:42.701Z,1006.38
2019-03-03T01:36:42.685Z,1006.36
2019-03-03T01:37:42.695Z,1006.30
2019-03-03T01:38:42.721Z,1006.30
2019-03-03T01:39:42.654Z,1006.29
2019-03-03T01:40:42.644Z,1006.25
2019-03-03T01:41:42.633Z,1006.21
2019-03-03T01:42:42.651Z,1006.17
2019-03-03T01:43:42.612Z,1006.22
2019-03-03T01:44:42.604Z,1006.22
2019-03-03T01:45:42.595Z,1006.27
2019-03-03T01:46:42.586Z,1006.20
2019-03-03T01:47:42.595Z,1006.12
2019-03-03T01:48:42.561Z,1006.10
2019-03-03T01:49:42.548Z,1006.11
2019-03-03T01:50:42.538Z,1006.13
2019-03-03T01:51:42.523Z,1006.13
2019-03-03T01:52:42.522Z,1006.10
2019-03-03T01:53:42.519Z,1006.14
2019-03-03T01:54:42.492Z,1006.13
2019-03-03T01:55:42.485Z,1006.16
2019-03-03T01:56:42.473Z,1006.07
2019-03-03T01:57:42.465Z,1006.08
2019-03-03T01:58:42.479Z,1006.06
2019-03-03T01:59:42.445Z,1006.09
2019-03-03T02:00:42.429Z,1006.12
2019-03-03T02:01:42.424Z,1006.12
2019-03-03T02:02:42.406Z,1006.17
2019-03-03T02:03:42.423Z,1006.09
2019-03-03T02:04:42.386Z,1006.07
2019-03-03T02:05:42.379Z,1006.12
2019-03-03T02:06:42.369Z,1006.06
2019-03-03T02:07:42.350Z,1006.07
2019-03-03T02:08:42.362Z,1006.07
2019-03-03T02:09:42.336Z,1006.05
2019-03-03T02:10:42.326Z,1006.02
2019-03-03T02:11:42.313Z,1006.01
2019-03-03T02:12:42.308Z,1005.97
2019-03-03T02:13:42.313Z,1005.94
2019-03-03T02:14:42.302Z,1005.91
2019-03-03T02:15:42.264Z,1005.92
2019-03-03T02:16:42.258Z,1005.82
2019-03-03T02:17:42.253Z,1005.82
2019-03-03T02:18:42.231Z,1005.78
2019-03-03T02:19:42.267Z,1005.73
2019-03-03T02:20:42.211Z,1005.76
2019-03-03T02:21:42.201Z,1005.72
2019-03-03T02:22:42.187Z,1005.66
2019-03-03T02:23:42.187Z,1005.65
2019-03-03T02:24:42.175Z,1005.63
2019-03-03T02:25:42.193Z,1005.59
2019-03-03T02:26:42.145Z,1005.62
2019-03-03T02:27:42.135Z,1005.60
2019-03-03T02:28:42.126Z,1005.58
2019-03-03T02:29:42.114Z,1005.51
2019-03-03T02:30:42.125Z,1005.50
2019-03-03T02:31:42.098Z,1005.47
2019-03-03T02:32:42.083Z,1005.42
2019-03-03T02:33:42.072Z,1005.39
2019-03-03T02:34:42.059Z,1005.37
2019-03-03T02:35:42.224Z,1005.39
2019-03-03T02:36:42.050Z,1005.37
2019-03-03T02:37:42.026Z,1005.40
2019-03-03T02:38:42.024Z,1005.34
2019-03-03T02:39:42.012Z,1005.35
2019-03-03T02:40:42.005Z,1005.39
2019-03-03T02:41:42.024Z,1005.35
2019-03-03T02:42:41.976Z,1005.40
2019-03-03T02:43:41.964Z,1005.31
2019-03-03T02:44:41.951Z,1005.32
2019-03-03T02:45:41.966Z,1005.36
2019-03-03T02:46:41.946Z,1005.33
2019-03-03T02:47:41.916Z,1005.37
2019-03-03T02:48:41.916Z,1005.36
2019-03-03T02:49:41.904Z,1005.29
2019-03-03T02:50:41.883Z,1005.28
2019-03-03T02:51:41.901Z,1005.21
2019-03-03T02:52:41.875Z,1005.23
2019-03-03T02:53:41.853Z,1005.19
2019-03-03T02:54:41.841Z,1005.23
2019-03-03T02:55:41.831Z,1005.26
2019-03-03T02:56:41.845Z,1005.27
2019-03-03T02:57:41.813Z,1005.24
2019-03-03T02:58:41.817Z,1005.21
2019-03-03T02:59:41.791Z,1005.25
2019-03-03T03:00:41.780Z,1005.23
2019-03-03T03:01:41.789Z,1005.19
2019-03-03T03:02:41.755Z,1005.17
2019-03-03T03:03:41.744Z,1005.18
2019-03-03T03:04:41.738Z,1005.19
2019-03-03T03:05:41.723Z,1005.17
2019-03-03T03:06:41.733Z,1005.16
2019-03-03T03:07:41.711Z,1005.14
2019-03-03T03:08:41.694Z,1005.08
2019-03-03T03:09:41.695Z,1005.08
2019-03-03T03:10:41.674Z,1005.13
2019-03-03T03:11:41.679Z,1005.03
2019-03-03T03:12:41.647Z,1005.05
2019-03-03T03:13:41.637Z,1005.05
2019-03-03T03:14:41.628Z,1005.08
2019-03-03T03:15:41.625Z,1005.10
2019-03-03T03:16:41.636Z,1004.98
2019-03-03T03:17:41.595Z,1005.08
2019-03-03T03:18:41.584Z,1004.99
2019-03-03T03:19:41.576Z,1004.98
2019-03-03T03:20:41.562Z,1004.94
2019-03-03T03:21:41.562Z,1004.92
2019-03-03T03:22:41.587Z,1004.93
2019-03-03T03:23:41.531Z,1004.90
2019-03-03T03:24:41.519Z,1004.94
2019-03-03T03:25:41.514Z,1004.88
2019-03-03T03:26:41.498Z,1004.87
2019-03-03T03:27:41.508Z,1004.85
2019-03-03T03:28:41.480Z,1004.76
2019-03-03T03:29:41.465Z,1004.78
2019-03-03T03:30:41.467Z,1004.74
2019-03-03T03:31:41.448Z,1004.75
2019-03-03T03:32:41.464Z,1004.73
2019-03-03T03:33:41.433Z,1004.75
2019-03-03T03:34:41.412Z,1004.69
2019-03-03T03:35:41.424Z,1004.67
2019-03-03T03:36:41.389Z,1004.64
2019-03-03T03:37:41.377Z,1004.66
2019-03-03T03:38:41.394Z,1004.70
2019-03-03T03:39:41.354Z,1004.62
2019-03-03T03:40:41.358Z,1004.60
2019-03-03T03:41:41.335Z,1004.63
2019-03-03T03:42:41.335Z,1004.61
2019-03-03T03:43:41.316Z,1004.60
2019-03-03T03:44:41.322Z,1004.60
2019-03-03T03:45:41.289Z,1004.57
2019-03-03T03:46:41.288Z,1004.50
2019-03-03T03:47:41.267Z,1004.59
2019-03-03T03:48:41.258Z,1004.60
2019-03-03T03:49:41.264Z,1004.66
2019-03-03T03:50:41.236Z,1004.68
2019-03-03T03:51:41.229Z,1004.67
2019-03-03T03:52:41.302Z,1004.58
2019-03-03T03:53:41.207Z,1004.56
2019-03-03T03:54:41.216Z,1004.53
2019-03-03T03:55:41.183Z,1004.50
2019-03-03T03:56:41.175Z,1004.49
2019-03-03T03:57:41.184Z,1004.49
2019-03-03T03:58:41.160Z,1004.41
2019-03-03T03:59:41.146Z,1004.48
2019-03-03T04:00:41.146Z,1004.43
2019-03-03T04:01:41.121Z,1004.42
2019-03-03T04:02:41.104Z,1004.43
2019-03-03T04:03:41.098Z,1004.40
2019-03-03T04:04:41.098Z,1004.44
2019-03-03T04:05:41.096Z,1004.43
2019-03-03T04:06:41.064Z,1004.38
2019-03-03T04:07:41.054Z,1004.38
2019-03-03T04:08:41.043Z,1004.40
2019-03-03T04:09:41.031Z,1004.32
2019-03-03T04:10:41.048Z,1004.34
2019-03-03T04:11:41.014Z,1004.31
2019-03-03T04:12:40.999Z,1004.23
2019-03-03T04:13:40.987Z,1004.32
2019-03-03T04:14:40.975Z,1004.30
2019-03-03T04:15:40.984Z,1004.31
2019-03-03T04:16:40.954Z,1004.33
2019-03-03T04:17:40.952Z,1004.30
2019-03-03T04:18:40.931Z,1004.30
2019-03-03T04:19:40.920Z,1004.29
2019-03-03T04:20:40.929Z,1004.19
2019-03-03T04:21:40.902Z,1004.22
2019-03-03T04:22:40.888Z,1004.26
2019-03-03T04:23:40.888Z,1004.21
2019-03-03T04:24:40.864Z,1004.23
2019-03-03T04:25:40.877Z,1004.27
2019-03-03T04:26:40.845Z,1004.22
2019-03-03T04:27:40.882Z,1004.27
2019-03-03T04:28:40.825Z,1004.26
2019-03-03T04:29:40.837Z,1004.22
2019-03-03T04:30:40.802Z,1004.24
2019-03-03T04:31:40.816Z,1004.27
2019-03-03T04:32:40.780Z,1004.29
2019-03-03T04:33:40.777Z,1004.26
2019-03-03T04:34:40.763Z,1004.25
2019-03-03T04:35:40.755Z,1004.25
2019-03-03T04:36:40.753Z,1004.24
2019-03-03T04:37:40.726Z,1004.21
2019-03-03T04:38:40.712Z,1004.23
2019-03-03T04:39:40.703Z,1004.24
2019-03-03T04:40:40.692Z,1004.19
2019-03-03T04:41:40.720Z,1004.20
2019-03-03T04:42:40.671Z,1004.16
2019-03-03T04:43:40.658Z,1004.21
2019-03-03T04:44:40.648Z,1004.17
2019-03-03T04:45:40.642Z,1004.16
2019-03-03T04:46:40.647Z,1004.13
2019-03-03T04:47:40.621Z,1004.12
2019-03-03T04:48:40.604Z,1004.09
2019-03-03T04:49:40.595Z,1004.06
2019-03-03T04:50:40.587Z,1004.09
2019-03-03T04:51:40.594Z,1004.08
2019-03-03T04:52:40.567Z,1004.04
2019-03-03T04:53:40.555Z,1004.08
2019-03-03T04:54:40.541Z,1004.06
2019-03-03T04:55:40.528Z,1004.04
2019-03-03T04:56:40.539Z,1004.04
2019-03-03T04:57:40.506Z,1004.00
2019-03-03T04:58:40.496Z,1003.98
2019-03-03T04:59:48.019Z,1003.95
2019-03-03T05:00:40.475Z,1003.98
2019-03-03T05:01:40.483Z,1003.95
2019-03-03T05:02:40.454Z,1003.91
2019-03-03T05:03:40.444Z,1003.85
2019-03-03T05:04:40.431Z,1003.84
2019-03-03T05:05:40.423Z,1003.85
2019-03-03T05:06:40.432Z,1003.83
2019-03-03T05:07:40.399Z,1003.82
2019-03-03T05:08:40.402Z,1003.78
2019-03-03T05:09:40.390Z,1003.73
2019-03-03T05:10:40.364Z,1003.76
2019-03-03T05:11:40.370Z,1003.72
2019-03-03T05:12:40.355Z,1003.75
2019-03-03T05:13:40.336Z,1003.73
2019-03-03T05:14:40.343Z,1003.76
2019-03-03T05:15:40.316Z,1003.74
2019-03-03T05:16:40.319Z,1003.77
2019-03-03T05:17:40.289Z,1003.78
2019-03-03T05:18:40.281Z,1003.78
2019-03-03T05:19:40.277Z,1003.71
2019-03-03T05:20:40.272Z,1003.73
2019-03-03T05:21:40.270Z,1003.71
2019-03-03T05:22:40.234Z,1003.70
2019-03-03T05:23:40.230Z,1003.71
2019-03-03T05:24:40.214Z,1003.75
2019-03-03T05:25:40.207Z,1003.71
2019-03-03T05:26:40.199Z,1003.69
2019-03-03T05:27:40.206Z,1003.73
2019-03-03T05:28:40.173Z,1003.72
2019-03-03T05:29:40.164Z,1003.73
2019-03-03T05:30:40.156Z,1003.71
2019-03-03T05:31:40.141Z,1003.68
2019-03-03T05:32:40.153Z,1003.68
2019-03-03T05:33:40.116Z,1003.65
2019-03-03T05:34:40.116Z,1003.66
2019-03-03T05:35:40.095Z,1003.68
2019-03-03T05:36:40.093Z,1003.71
2019-03-03T05:37:40.103Z,1003.66
2019-03-03T05:38:40.066Z,1003.71
2019-03-03T05:39:40.056Z,1003.65
2019-03-03T05:40:40.041Z,1003.65
2019-03-03T05:41:40.033Z,1003.64
2019-03-03T05:42:40.039Z,1003.63
2019-03-03T05:43:40.034Z,1003.61
2019-03-03T05:44:39.999Z,1003.67
2019-03-03T05:45:39.989Z,1003.61
2019-03-03T05:46:39.977Z,1003.61
2019-03-03T05:47:39.990Z,1003.63
2019-03-03T05:48:47.487Z,1003.59
2019-03-03T05:49:47.519Z,1003.58
2019-03-03T05:50:47.472Z,1003.57
2019-03-03T05:51:47.457Z,1003.59
2019-03-03T05:52:48.682Z,1003.61
2019-03-03T05:53:47.448Z,1003.62
2019-03-03T05:54:48.448Z,1003.63
2019-03-03T05:55:39.883Z,1003.72
2019-03-03T05:56:39.869Z,1003.66
2019-03-03T05:57:47.393Z,1003.69
2019-03-03T05:58:39.866Z,1003.64
2019-03-03T05:59:39.835Z,1003.67
2019-03-03T06:00:39.828Z,1003.64
2019-03-03T06:01:39.814Z,1003.63
2019-03-03T06:02:46.833Z,1003.65
2019-03-03T06:03:39.809Z,1003.66
2019-03-03T06:04:39.781Z,1003.65
2019-03-03T06:05:47.498Z,1003.62
2019-03-03T06:06:39.761Z,1003.64
2019-03-03T06:07:46.791Z,1003.61
2019-03-03T06:08:48.357Z,1003.62
2019-03-03T06:09:39.728Z,1003.56
2019-03-03T06:10:39.718Z,1003.60
2019-03-03T06:11:39.705Z,1003.58
2019-03-03T06:12:39.695Z,1003.64
2019-03-03T06:13:39.702Z,1003.63
2019-03-03T06:14:39.674Z,1003.56
2019-03-03T06:15:39.667Z,1003.55
2019-03-03T06:16:39.652Z,1003.56
2019-03-03T06:17:48.177Z,1003.55
2019-03-03T06:18:48.398Z,1003.49
2019-03-03T06:19:39.619Z,1003.50
2019-03-03T06:20:47.143Z,1003.45
2019-03-03T06:21:47.131Z,1003.47
2019-03-03T06:22:48.401Z,1003.49
2019-03-03T06:23:47.118Z,1003.44
2019-03-03T06:24:39.587Z,1003.46
2019-03-03T06:25:39.552Z,1003.43
2019-03-03T06:26:39.542Z,1003.42
2019-03-03T06:27:39.530Z,1003.38
2019-03-03T06:28:39.520Z,1003.46
2019-03-03T06:29:39.527Z,1003.49
2019-03-03T06:30:39.506Z,1003.45
2019-03-03T06:31:39.489Z,1003.44
2019-03-03T06:32:39.478Z,1003.46
2019-03-03T06:33:39.473Z,1003.49
2019-03-03T06:34:39.470Z,1003.46
2019-03-03T06:35:39.452Z,1003.51
2019-03-03T06:36:39.433Z,1003.46
2019-03-03T06:37:39.423Z,1003.49
2019-03-03T06:38:39.419Z,1003.44
2019-03-03T06:39:39.420Z,1003.38
2019-03-03T06:40:39.395Z,1003.43
2019-03-03T06:41:39.379Z,1003.43
2019-03-03T06:42:39.370Z,1003.35
2019-03-03T06:43:39.358Z,1003.38
2019-03-03T06:44:39.365Z,1003.40
2019-03-03T06:45:39.345Z,1003.42
2019-03-03T06:46:39.329Z,1003.41
2019-03-03T06:47:39.319Z,1003.39
2019-03-03T06:48:39.306Z,1003.37
2019-03-03T06:49:39.324Z,1003.38
2019-03-03T06:50:39.285Z,1003.39
2019-03-03T06:51:39.273Z,1003.37
2019-03-03T06:52:39.302Z,1003.43
2019-03-03T06:53:39.256Z,1003.41
2019-03-03T06:54:39.279Z,1003.43
2019-03-03T06:55:39.268Z,1003.45
2019-03-03T06:56:39.217Z,1003.43
2019-03-03T06:57:39.206Z,1003.37
2019-03-03T06:58:39.202Z,1003.41
2019-03-03T06:59:39.186Z,1003.44
2019-03-03T07:00:39.204Z,1003.36
2019-03-03T07:01:39.164Z,1003.34
2019-03-03T07:02:39.152Z,1003.26
2019-03-03T07:03:39.141Z,1003.28
2019-03-03T07:04:39.130Z,1003.29
2019-03-03T07:05:39.164Z,1003.27
2019-03-03T07:06:39.109Z,1003.27
2019-03-03T07:07:39.100Z,1003.26
2019-03-03T07:08:39.093Z,1003.32
2019-03-03T07:09:39.084Z,1003.32
2019-03-03T07:10:39.083Z,1003.32
2019-03-03T07:11:39.075Z,1003.30
2019-03-03T07:12:39.045Z,1003.36
2019-03-03T07:13:39.034Z,1003.35
2019-03-03T07:14:39.020Z,1003.34
2019-03-03T07:15:39.033Z,1003.36
2019-03-03T07:16:39.023Z,1003.29
2019-03-03T07:17:39.004Z,1003.34
2019-03-03T07:18:46.515Z,1003.28
2019-03-03T07:19:38.969Z,1003.34
2019-03-03T07:20:39.075Z,1003.34
2019-03-03T07:21:38.968Z,1003.32
2019-03-03T07:22:38.943Z,1003.32
2019-03-03T07:23:38.924Z,1003.34
2019-03-03T07:24:38.923Z,1003.38
2019-03-03T07:25:38.905Z,1003.33
2019-03-03T07:26:38.911Z,1003.36
2019-03-03T07:27:38.882Z,1003.30
2019-03-03T07:28:38.869Z,1003.35
2019-03-03T07:29:38.862Z,1003.35
2019-03-03T07:30:38.851Z,1003.33
2019-03-03T07:31:38.859Z,1003.35
2019-03-03T07:32:38.826Z,1003.32
2019-03-03T07:33:38.815Z,1003.36
2019-03-03T07:34:38.811Z,1003.44
2019-03-03T07:35:38.795Z,1003.43
2019-03-03T07:36:38.804Z,1003.48
2019-03-03T07:37:38.774Z,1003.53
2019-03-03T07:38:38.767Z,1003.44
2019-03-03T07:39:38.751Z,1003.48
2019-03-03T07:40:38.742Z,1003.48
2019-03-03T07:41:38.789Z,1003.47
2019-03-03T07:42:38.720Z,1003.46
2019-03-03T07:43:38.808Z,1003.42
2019-03-03T07:44:38.726Z,1003.34
2019-03-03T07:45:38.686Z,1003.41
2019-03-03T07:46:38.709Z,1003.41
2019-03-03T07:47:38.671Z,1003.45
2019-03-03T07:48:38.660Z,1003.40
2019-03-03T07:49:38.664Z,1003.48
2019-03-03T07:50:38.636Z,1003.44
2019-03-03T07:51:38.663Z,1003.42
2019-03-03T07:52:38.612Z,1003.43
2019-03-03T07:53:38.605Z,1003.41
2019-03-03T07:54:38.600Z,1003.37
2019-03-03T07:55:38.584Z,1003.39
2019-03-03T07:56:38.574Z,1003.38
2019-03-03T07:57:38.630Z,1003.40
2019-03-03T07:58:38.543Z,1003.34
2019-03-03T07:59:38.533Z,1003.33
2019-03-03T08:00:38.526Z,1003.33
2019-03-03T08:01:38.510Z,1003.30
2019-03-03T08:02:38.535Z,1003.31
2019-03-03T08:03:38.524Z,1003.36
2019-03-03T08:04:38.482Z,1003.29
2019-03-03T08:05:38.496Z,1003.34
2019-03-03T08:06:38.463Z,1003.36
2019-03-03T08:07:38.467Z,1003.35
2019-03-03T08:08:45.656Z,1003.39
2019-03-03T08:09:46.139Z,1003.38
2019-03-03T08:10:38.421Z,1003.41
2019-03-03T08:11:38.404Z,1003.35
2019-03-03T08:12:38.420Z,1003.42
2019-03-03T08:13:38.381Z,1003.41
2019-03-03T08:14:38.370Z,1003.45
2019-03-03T08:15:38.362Z,1003.38
2019-03-03T08:16:38.357Z,1003.43
2019-03-03T08:17:38.348Z,1003.43
2019-03-03T08:18:38.357Z,1003.35
2019-03-03T08:19:38.317Z,1003.45
2019-03-03T08:20:38.318Z,1003.39
2019-03-03T08:21:38.306Z,1003.42
2019-03-03T08:22:38.288Z,1003.42
2019-03-03T08:23:38.317Z,1003.46
2019-03-03T08:24:38.278Z,1003.48
2019-03-03T08:25:38.298Z,1003.44
2019-03-03T08:26:38.260Z,1003.41
2019-03-03T08:27:38.235Z,1003.41
2019-03-03T08:28:38.244Z,1003.43
2019-03-03T08:29:38.221Z,1003.46
2019-03-03T08:30:38.202Z,1003.41
2019-03-03T08:31:38.189Z,1003.37
2019-03-03T08:32:38.221Z,1003.41
2019-03-03T08:33:38.189Z,1003.36
2019-03-03T08:34:38.158Z,1003.38
2019-03-03T08:35:38.175Z,1003.38
2019-03-03T08:36:38.139Z,1003.31
2019-03-03T08:37:38.128Z,1003.42
2019-03-03T08:38:38.130Z,1003.36
2019-03-03T08:39:38.115Z,1003.44
2019-03-03T08:40:38.124Z,1003.32
2019-03-03T08:41:38.088Z,1003.35
2019-03-03T08:42:38.070Z,1003.37
2019-03-03T08:43:38.120Z,1003.33
2019-03-03T08:44:38.054Z,1003.35
2019-03-03T08:45:38.049Z,1003.36
2019-03-03T08:46:38.032Z,1003.52
2019-03-03T08:47:38.018Z,1003.32
2019-03-03T08:48:38.033Z,1003.41
2019-03-03T08:49:38.005Z,1003.30
2019-03-03T08:50:37.994Z,1003.33
2019-03-03T08:51:37.979Z,1003.33
2019-03-03T08:52:37.963Z,1003.33
2019-03-03T08:53:37.957Z,1003.29
2019-03-03T08:54:37.983Z,1003.30
2019-03-03T08:55:37.935Z,1003.31
2019-03-03T08:56:37.920Z,1003.41
2019-03-03T08:57:37.908Z,1003.32
2019-03-03T08:58:37.921Z,1003.28
2019-03-03T08:59:37.921Z,1003.30
2019-03-03T09:00:37.886Z,1003.28
2019-03-03T09:01:37.886Z,1003.30
2019-03-03T09:02:37.908Z,1003.34
2019-03-03T09:03:37.858Z,1003.27
2019-03-03T09:04:37.853Z,1003.34
2019-03-03T09:05:37.825Z,1003.31
2019-03-03T09:06:37.834Z,1003.28
2019-03-03T09:07:37.806Z,1003.30
2019-03-03T09:08:37.789Z,1003.29
2019-03-03T09:09:37.803Z,1003.25
2019-03-03T09:10:37.776Z,1003.22
2019-03-03T09:11:37.766Z,1003.22
2019-03-03T09:12:37.747Z,1003.20
2019-03-03T09:13:37.743Z,1003.27
2019-03-03T09:14:37.754Z,1003.28
2019-03-03T09:15:37.718Z,1003.23
2019-03-03T09:16:37.703Z,1003.27
2019-03-03T09:17:37.702Z,1003.29
2019-03-03T09:18:37.681Z,1003.21
2019-03-03T09:19:37.695Z,1003.26
2019-03-03T09:20:37.663Z,1003.20
2019-03-03T09:21:37.650Z,1003.21
2019-03-03T09:22:37.642Z,1003.19
2019-03-03T09:23:37.629Z,1003.20
2019-03-03T09:24:37.655Z,1003.25
2019-03-03T09:25:37.606Z,1003.20
2019-03-03T09:26:37.598Z,1003.14
2019-03-03T09:27:37.589Z,1003.14
2019-03-03T09:28:37.600Z,1003.20
2019-03-03T09:29:37.605Z,1003.15
2019-03-03T09:30:37.556Z,1003.10
2019-03-03T09:31:37.554Z,1003.22
2019-03-03T09:32:37.534Z,1003.21
2019-03-03T09:33:37.528Z,1003.14
2019-03-03T09:34:37.517Z,1003.16
2019-03-03T09:35:37.525Z,1003.16
2019-03-03T09:36:37.489Z,1003.11
2019-03-03T09:37:37.480Z,1003.25
2019-03-03T09:38:37.503Z,1003.07
2019-03-03T09:39:37.458Z,1003.16
2019-03-03T09:40:37.473Z,1003.19
2019-03-03T09:41:37.440Z,1003.25
2019-03-03T09:42:37.424Z,1003.15
2019-03-03T09:43:37.416Z,1003.16
2019-03-03T09:44:37.410Z,1003.23
2019-03-03T09:45:37.421Z,1003.16
2019-03-03T09:46:37.385Z,1003.15
2019-03-03T09:47:37.369Z,1003.16
2019-03-03T09:48:37.362Z,1003.18
2019-03-03T09:49:37.397Z,1003.12
2019-03-03T09:50:37.343Z,1003.16
2019-03-03T09:51:37.330Z,1003.12
2019-03-03T09:52:37.317Z,1003.10
2019-03-03T09:53:37.308Z,1003.12
2019-03-03T09:54:37.298Z,1003.13
2019-03-03T09:55:37.311Z,1003.04
2019-03-03T09:56:37.296Z,1003.07
2019-03-03T09:57:37.301Z,1003.07
2019-03-03T09:58:37.256Z,1003.13
2019-03-03T09:59:37.242Z,1003.07
2019-03-03T10:00:37.256Z,1003.08
2019-03-03T10:01:37.222Z,1003.08
2019-03-03T10:02:37.211Z,1003.05
2019-03-03T10:03:37.200Z,1003.04
2019-03-03T10:04:37.215Z,1003.10
2019-03-03T10:05:37.180Z,1003.08
2019-03-03T10:06:37.169Z,1003.02
2019-03-03T10:07:37.161Z,1003.11
2019-03-03T10:08:37.145Z,1003.12
2019-03-03T10:09:37.171Z,1003.11
2019-03-03T10:10:37.123Z,1003.16
2019-03-03T10:11:37.169Z,1003.08
2019-03-03T10:12:37.102Z,1003.10
2019-03-03T10:13:37.101Z,1003.14
2019-03-03T10:14:37.090Z,1003.14
2019-03-03T10:15:37.090Z,1003.12
2019-03-03T10:16:37.071Z,1003.17
2019-03-03T10:17:37.059Z,1003.11
2019-03-03T10:18:37.052Z,1003.11
2019-03-03T10:19:37.031Z,1003.10
2019-03-03T10:20:37.040Z,1003.08
2019-03-03T10:21:37.026Z,1003.13
2019-03-03T10:22:37.001Z,1003.07
2019-03-03T10:23:36.994Z,1003.11
2019-03-03T10:24:36.982Z,1003.07
2019-03-03T10:25:37.025Z,1003.12
2019-03-03T10:26:36.985Z,1003.12
2019-03-03T10:27:36.959Z,1003.11
2019-03-03T10:28:36.932Z,1003.14
2019-03-03T10:29:36.920Z,1003.13
2019-03-03T10:30:36.931Z,1003.12
2019-03-03T10:31:36.919Z,1003.13
2019-03-03T10:32:36.901Z,1003.06
2019-03-03T10:33:36.904Z,1003.06
2019-03-03T10:34:36.867Z,1003.07
2019-03-03T10:35:36.890Z,1003.07
2019-03-03T10:36:36.852Z,1003.05
2019-03-03T10:37:36.842Z,1003.07
2019-03-03T10:38:36.870Z,1003.08
2019-03-03T10:39:36.818Z,1003.04
2019-03-03T10:40:36.823Z,1003.06
2019-03-03T10:41:36.829Z,1003.01
2019-03-03T10:42:36.793Z,1003.00
2019-03-03T10:43:36.772Z,1002.92
2019-03-03T10:44:36.806Z,1002.96
2019-03-03T10:45:36.786Z,1002.98
2019-03-03T10:46:44.322Z,1002.96
2019-03-03T10:47:36.736Z,1002.94
2019-03-03T10:48:36.730Z,1002.91
2019-03-03T10:49:36.706Z,1003.03
2019-03-03T10:50:36.721Z,1002.96
2019-03-03T10:51:36.694Z,1002.97
2019-03-03T10:52:36.704Z,1002.95
2019-03-03T10:53:36.669Z,1002.96
2019-03-03T10:54:36.655Z,1002.98
2019-03-03T10:55:36.646Z,1002.98
2019-03-03T10:56:36.651Z,1003.00
2019-03-03T10:57:36.629Z,1002.94
2019-03-03T10:58:36.616Z,1002.97
2019-03-03T10:59:44.143Z,1002.94
2019-03-03T11:00:36.589Z,1002.93
2019-03-03T11:01:36.595Z,1002.86
2019-03-03T11:02:36.565Z,1002.95
2019-03-03T11:03:36.556Z,1002.97
2019-03-03T11:04:36.550Z,1002.98
2019-03-03T11:05:36.538Z,1002.92
2019-03-03T11:06:36.573Z,1002.97
2019-03-03T11:07:36.524Z,1002.99
2019-03-03T11:08:36.815Z,1003.05
2019-03-03T11:09:36.488Z,1003.00
2019-03-03T11:10:36.502Z,1003.01
2019-03-03T11:11:36.511Z,1003.03
2019-03-03T11:12:36.508Z,1003.00
2019-03-03T11:13:36.450Z,1003.03
2019-03-03T11:14:36.444Z,1003.03
2019-03-03T11:15:36.459Z,1002.98
2019-03-03T11:16:36.436Z,1003.01
2019-03-03T11:17:36.451Z,1002.93
2019-03-03T11:18:36.398Z,1003.01
2019-03-03T11:19:36.399Z,1002.93
2019-03-03T11:20:36.400Z,1002.95
2019-03-03T11:21:36.374Z,1002.96
2019-03-03T11:22:36.376Z,1002.92
2019-03-03T11:23:36.360Z,1002.92
2019-03-03T11:24:36.337Z,1002.86
2019-03-03T11:25:36.317Z,1002.81
2019-03-03T11:26:36.310Z,1002.87
2019-03-03T11:27:36.340Z,1002.87
2019-03-03T11:28:36.305Z,1002.88
2019-03-03T11:29:36.277Z,1002.81
2019-03-03T11:30:38.564Z,1002.79
2019-03-03T11:31:36.259Z,1002.81
2019-03-03T11:32:36.332Z,1002.75
2019-03-03T11:33:36.263Z,1002.81
2019-03-03T11:34:36.225Z,1002.75
2019-03-03T11:35:36.212Z,1002.74
2019-03-03T11:36:36.199Z,1002.68
2019-03-03T11:37:36.190Z,1002.68
2019-03-03T11:38:36.206Z,1002.64
2019-03-03T11:39:36.226Z,1002.66
2019-03-03T11:40:36.164Z,1002.72
2019-03-03T11:41:36.151Z,1002.67
2019-03-03T11:42:36.135Z,1002.67
2019-03-03T11:43:36.146Z,1002.66
2019-03-03T11:44:36.116Z,1002.61
2019-03-03T11:45:36.111Z,1002.60
2019-03-03T11:46:36.116Z,1002.61
2019-03-03T11:47:36.081Z,1002.60
2019-03-03T11:48:36.091Z,1002.52
2019-03-03T11:49:36.087Z,1002.48
2019-03-03T11:50:36.050Z,1002.52
2019-03-03T11:51:36.070Z,1002.56
2019-03-03T11:52:36.028Z,1002.58
2019-03-03T11:53:36.038Z,1002.53
2019-03-03T11:54:36.353Z,1002.53
2019-03-03T11:55:36.015Z,1002.55
2019-03-03T11:56:36.000Z,1002.50
2019-03-03T11:57:35.975Z,1002.44
2019-03-03T11:58:35.996Z,1002.41
2019-03-03T11:59:35.953Z,1002.44
2019-03-03T12:00:35.941Z,1002.48
2019-03-03T12:01:35.929Z,1002.42
2019-03-03T12:02:35.927Z,1002.44
2019-03-03T12:03:35.909Z,1002.41
2019-03-03T12:04:35.952Z,1002.38
2019-03-03T12:05:35.885Z,1002.36